< < Back
Terminal Aerodrome Forecast


Current Version              Previous Versions:   1  2  3  4  5  6  7  8  9  

Terminal Aerodrome Forecast

378
FTUS42 KFFC 252332
TAFFTY
TAF
KFTY 252332Z 2600/2624 20008KT P6SM SCT120
     FM260200 20006KT P6SM -RA SCT035 OVC050
     FM260500 24007KT P6SM -RA OVC025
     FM260900 27008KT P6SM -RA OVC012
     FM261500 31012G22KT P6SM BKN025
     FM261800 31016G24KT P6SM BKN080=



Latest METAR

186
SAUS70 KWBC 260600 RRK
MTRFTY
METAR KFTY 260553Z 22006KT 10SM OVC090 07/05 A2974 RMK AO2 SLP069 60005
T00670050 10133 20067 58005


USA.gov is the U.S. government's official web portal to all federal, state and local government web resources and services.